Norcatur, Kansas
Current Conditions -  °F | °C
As of 9:53 AM on Monday 22 Dec 2014 (Local Time) from KMCK Reporting Station
Overcast Overcast  
Wind Chill: 34°   Ceiling: 11000
Heat Index: 40°   Visibility: 10mi
Dew Point: 32°   Wind: 8mph
Humidity: 73%   Direction: 280°W
Pressure: 29.62"   Gusts: NA
Location:  39.84°N, 100.19°W
Report Text: KMCK 221553Z AUTO 28007KT 10SM OVC110 04/00 A2962 RMK AO2 SLP044 T00440000
Loading
Personal Weather Stations






























Interactive Weather Map New forecast layout! Learn more

10-Day Weather Forecast

Advertisements
Track Severe Weather on mobile